createdAt,value
2018-12-09T00:00:40.518Z,2.31
2018-12-09T00:01:40.528Z,2.31
2018-12-09T00:02:40.510Z,2.22
2018-12-09T00:03:40.867Z,2.41
2018-12-09T00:04:40.486Z,2.41
2018-12-09T00:05:40.845Z,2.31
2018-12-09T00:06:40.952Z,2.31
2018-12-09T00:07:40.862Z,2.31
2018-12-09T00:08:40.476Z,2.31
2018-12-09T00:09:40.504Z,2.41
2018-12-09T00:10:40.799Z,2.31
2018-12-09T00:11:40.794Z,2.31
2018-12-09T00:12:40.827Z,2.31
2018-12-09T00:13:40.764Z,2.41
2018-12-09T00:14:40.763Z,2.31
2018-12-09T00:15:40.807Z,2.41
2018-12-09T00:16:40.784Z,2.31
2018-12-09T00:17:40.776Z,2.41
2018-12-09T00:18:40.389Z,2.31
2018-12-09T00:19:40.412Z,2.22
2018-12-09T00:20:40.412Z,2.41
2018-12-09T00:21:40.715Z,2.41
2018-12-09T00:22:40.712Z,2.31
2018-12-09T00:23:40.382Z,2.31
2018-12-09T00:24:40.374Z,2.41
2018-12-09T00:25:40.342Z,2.41
2018-12-09T00:26:40.372Z,2.31
2018-12-09T00:27:40.325Z,2.41
2018-12-09T00:28:40.650Z,2.31
2018-12-09T00:29:40.313Z,2.31
2018-12-09T00:30:40.654Z,2.31
2018-12-09T00:31:40.683Z,2.31
2018-12-09T00:32:40.309Z,2.41
2018-12-09T00:33:40.269Z,2.41
2018-12-09T00:34:40.300Z,2.41
2018-12-09T00:35:40.630Z,2.22
2018-12-09T00:36:40.599Z,2.31
2018-12-09T00:37:40.582Z,2.31
2018-12-09T00:38:40.629Z,2.41
2018-12-09T00:39:40.609Z,2.41
2018-12-09T00:40:40.227Z,2.41
2018-12-09T00:41:40.571Z,2.31
2018-12-09T00:42:43.535Z,2.31
2018-12-09T00:43:40.240Z,2.31
2018-12-09T00:44:40.200Z,2.41
2018-12-09T00:45:40.586Z,2.41
2018-12-09T00:46:40.530Z,2.31
2018-12-09T00:47:40.524Z,2.31
2018-12-09T00:48:40.204Z,2.31
2018-12-09T00:49:40.528Z,2.41
2018-12-09T00:50:40.182Z,2.31
2018-12-09T00:51:40.167Z,2.31
2018-12-09T00:52:40.518Z,2.31
2018-12-09T00:53:40.520Z,2.41
2018-12-09T00:54:40.481Z,2.31
2018-12-09T00:55:40.461Z,2.31
2018-12-09T00:56:40.498Z,2.31
2018-12-09T00:57:40.457Z,2.31
2018-12-09T00:58:40.104Z,2.41
2018-12-09T00:59:40.463Z,2.41
2018-12-09T01:00:40.466Z,2.31
2018-12-09T01:01:40.414Z,2.61
2018-12-09T01:02:40.063Z,2.41
2018-12-09T01:03:40.396Z,2.31
2018-12-09T01:04:40.394Z,2.31
2018-12-09T01:05:40.066Z,2.31
2018-12-09T01:06:40.368Z,2.31
2018-12-09T01:07:40.418Z,2.31
2018-12-09T01:08:40.021Z,2.31
2018-12-09T01:09:40.036Z,2.22
2018-12-09T01:10:40.028Z,2.22
2018-12-09T01:11:40.366Z,2.61
2018-12-09T01:12:39.990Z,2.31
2018-12-09T01:13:40.001Z,2.31
2018-12-09T01:14:40.004Z,2.31
2018-12-09T01:15:39.995Z,2.31
2018-12-09T01:16:40.010Z,2.31
2018-12-09T01:17:39.982Z,2.22
2018-12-09T01:18:40.295Z,2.31
2018-12-09T01:19:40.271Z,2.31
2018-12-09T01:20:40.305Z,2.31
2018-12-09T01:21:40.252Z,2.31
2018-12-09T01:22:40.282Z,2.31
2018-12-09T01:23:39.935Z,1.93
2018-12-09T01:24:40.263Z,2.03
2018-12-09T01:25:40.226Z,2.31
2018-12-09T01:26:39.887Z,1.93
2018-12-09T01:27:40.219Z,2.31
2018-12-09T01:28:39.880Z,2.31
2018-12-09T01:29:40.259Z,2.32
2018-12-09T01:30:40.187Z,1.93
2018-12-09T01:31:39.861Z,1.93
2018-12-09T01:32:39.846Z,1.93
2018-12-09T01:33:40.181Z,2.32
2018-12-09T01:34:40.208Z,2.12
2018-12-09T01:35:40.195Z,2.31
2018-12-09T01:36:39.815Z,1.93
2018-12-09T01:37:39.809Z,2.12
2018-12-09T01:38:39.803Z,1.93
2018-12-09T01:39:40.177Z,2.22
2018-12-09T01:40:40.133Z,2.03
2018-12-09T01:41:40.160Z,2.41
2018-12-09T01:42:40.145Z,2.03
2018-12-09T01:43:39.761Z,2.12
2018-12-09T01:44:39.778Z,2.12
2018-12-09T01:45:39.782Z,2.12
2018-12-09T01:46:39.770Z,2.03
2018-12-09T01:47:40.118Z,2.03
2018-12-09T01:48:39.719Z,2.22
2018-12-09T01:49:40.098Z,2.22
2018-12-09T01:50:40.100Z,2.22
2018-12-09T01:51:39.742Z,2.22
2018-12-09T01:52:40.053Z,2.03
2018-12-09T01:53:39.690Z,2.22
2018-12-09T01:54:40.054Z,2.03
2018-12-09T01:55:40.032Z,2.12
2018-12-09T01:56:39.667Z,2.12
2018-12-09T01:57:39.689Z,2.03
2018-12-09T01:58:39.660Z,2.03
2018-12-09T01:59:39.643Z,2.12
2018-12-09T02:00:39.686Z,2.03
2018-12-09T02:01:40.018Z,2.03
2018-12-09T02:02:39.661Z,2.12
2018-12-09T02:03:39.995Z,2.31
2018-12-09T02:04:39.655Z,2.03
2018-12-09T02:05:39.949Z,2.12
2018-12-09T02:06:39.943Z,2.03
2018-12-09T02:07:39.630Z,2.32
2018-12-09T02:08:39.933Z,2.32
2018-12-09T02:09:39.947Z,2.22
2018-12-09T02:10:39.561Z,2.12
2018-12-09T02:11:39.918Z,2.31
2018-12-09T02:12:39.878Z,2.31
2018-12-09T02:13:39.927Z,2.31
2018-12-09T02:14:39.526Z,2.22
2018-12-09T02:15:39.537Z,2.31
2018-12-09T02:16:39.882Z,2.22
2018-12-09T02:17:39.540Z,2.31
2018-12-09T02:18:39.504Z,2.31
2018-12-09T02:19:39.856Z,2.12
2018-12-09T02:20:39.484Z,2.32
2018-12-09T02:21:39.870Z,2.32
2018-12-09T02:22:39.811Z,2.22
2018-12-09T02:23:39.461Z,2.22
2018-12-09T02:24:39.496Z,2.12
2018-12-09T02:25:39.492Z,2.12
2018-12-09T02:26:39.837Z,2.12
2018-12-09T02:27:39.795Z,2.12
2018-12-09T02:28:39.425Z,2.12
2018-12-09T02:29:39.773Z,2.12
2018-12-09T02:30:39.451Z,2.22
2018-12-09T02:31:39.757Z,2.12
2018-12-09T02:32:39.743Z,2.12
2018-12-09T02:33:39.420Z,2.12
2018-12-09T02:34:39.716Z,2.12
2018-12-09T02:35:39.425Z,2.22
2018-12-09T02:36:39.411Z,2.22
2018-12-09T02:37:39.748Z,2.22
2018-12-09T02:38:39.722Z,2.12
2018-12-09T02:39:39.683Z,2.32
2018-12-09T02:40:39.372Z,2.12
2018-12-09T02:41:39.702Z,2.31
2018-12-09T02:42:39.685Z,2.12
2018-12-09T02:43:39.312Z,2.12
2018-12-09T02:44:39.648Z,2.31
2018-12-09T02:45:39.654Z,2.12
2018-12-09T02:46:39.323Z,2.32
2018-12-09T02:47:39.643Z,2.12
2018-12-09T02:48:39.280Z,2.22
2018-12-09T02:49:39.279Z,2.12
2018-12-09T02:50:39.653Z,2.03
2018-12-09T02:51:39.259Z,2.22
2018-12-09T02:52:39.611Z,2.03
2018-12-09T02:53:39.603Z,2.22
2018-12-09T02:54:39.275Z,2.12
2018-12-09T02:55:39.594Z,2.22
2018-12-09T02:56:39.576Z,2.12
2018-12-09T02:57:39.584Z,2.12
2018-12-09T02:58:39.595Z,2.03
2018-12-09T02:59:39.533Z,2.22
2018-12-09T03:00:39.534Z,2.31
2018-12-09T03:01:39.208Z,2.12
2018-12-09T03:02:39.174Z,2.32
2018-12-09T03:03:39.576Z,2.32
2018-12-09T03:04:39.206Z,2.12
2018-12-09T03:05:39.198Z,2.12
2018-12-09T03:06:39.512Z,2.22
2018-12-09T03:07:39.478Z,2.32
2018-12-09T03:08:39.515Z,2.32
2018-12-09T03:09:39.514Z,2.12
2018-12-09T03:10:39.126Z,2.12
2018-12-09T03:11:39.162Z,2.32
2018-12-09T03:12:41.425Z,2.32
2018-12-09T03:13:39.128Z,2.12
2018-12-09T03:14:39.470Z,2.32
2018-12-09T03:15:39.452Z,2.31
2018-12-09T03:16:39.433Z,2.32
2018-12-09T03:17:39.104Z,2.32
2018-12-09T03:18:39.075Z,2.12
2018-12-09T03:19:39.061Z,2.22
2018-12-09T03:20:39.088Z,2.32
2018-12-09T03:21:39.084Z,2.41
2018-12-09T03:22:39.070Z,2.12
2018-12-09T03:23:39.027Z,2.32
2018-12-09T03:24:39.382Z,2.32
2018-12-09T03:25:39.346Z,2.32
2018-12-09T03:26:39.362Z,2.22
2018-12-09T03:27:39.345Z,2.32
2018-12-09T03:28:39.027Z,2.32
2018-12-09T03:29:39.016Z,2.22
2018-12-09T03:30:39.373Z,2.32
2018-12-09T03:31:38.982Z,2.22
2018-12-09T03:32:39.320Z,2.32
2018-12-09T03:33:39.316Z,2.22
2018-12-09T03:34:38.961Z,2.32
2018-12-09T03:35:39.314Z,2.32
2018-12-09T03:36:39.268Z,2.41
2018-12-09T03:37:38.929Z,2.32
2018-12-09T03:38:38.953Z,2.41
2018-12-09T03:39:39.300Z,2.32
2018-12-09T03:40:38.949Z,2.32
2018-12-09T03:41:38.956Z,2.32
2018-12-09T03:42:39.277Z,2.32
2018-12-09T03:43:39.276Z,2.32
2018-12-09T03:44:38.878Z,2.41
2018-12-09T03:45:39.252Z,1.93
2018-12-09T03:46:38.893Z,2.32
2018-12-09T03:47:38.867Z,1.93
2018-12-09T03:48:38.853Z,2.22
2018-12-09T03:49:39.182Z,2.41
2018-12-09T03:50:39.184Z,1.93
2018-12-09T03:51:38.849Z,2.32
2018-12-09T03:52:39.197Z,2.41
2018-12-09T03:53:39.158Z,2.22
2018-12-09T03:54:38.851Z,2.32
2018-12-09T03:55:39.158Z,2.22
2018-12-09T03:56:38.791Z,2.32
2018-12-09T03:57:39.140Z,2.03
2018-12-09T03:58:39.412Z,2.32
2018-12-09T03:59:38.776Z,2.32
2018-12-09T04:00:39.111Z,1.93
2018-12-09T04:01:38.799Z,2.22
2018-12-09T04:02:38.754Z,2.32
2018-12-09T04:03:39.100Z,2.32
2018-12-09T04:04:39.124Z,2.32
2018-12-09T04:05:38.753Z,2.41
2018-12-09T04:06:38.740Z,2.32
2018-12-09T04:07:38.711Z,2.32
2018-12-09T04:08:39.075Z,2.22
2018-12-09T04:09:38.734Z,2.41
2018-12-09T04:10:38.725Z,1.93
2018-12-09T04:11:39.013Z,2.03
2018-12-09T04:12:38.673Z,2.32
2018-12-09T04:13:39.013Z,2.32
2018-12-09T04:14:39.004Z,2.32
2018-12-09T04:15:38.647Z,2.22
2018-12-09T04:16:38.992Z,1.93
2018-12-09T04:17:38.670Z,2.03
2018-12-09T04:18:38.982Z,2.22
2018-12-09T04:19:38.652Z,2.22
2018-12-09T04:20:38.653Z,2.32
2018-12-09T04:21:38.983Z,2.03
2018-12-09T04:22:38.621Z,2.22
2018-12-09T04:23:38.625Z,2.32
2018-12-09T04:24:38.616Z,1.93
2018-12-09T04:25:38.583Z,2.32
2018-12-09T04:26:38.607Z,2.32
2018-12-09T04:27:38.595Z,2.41
2018-12-09T04:28:38.916Z,2.32
2018-12-09T04:29:38.583Z,1.93
2018-12-09T04:30:38.913Z,2.32
2018-12-09T04:31:38.905Z,2.03
2018-12-09T04:32:38.525Z,2.03
2018-12-09T04:33:38.884Z,2.32
2018-12-09T04:34:38.880Z,2.32
2018-12-09T04:35:38.886Z,2.32
2018-12-09T04:36:38.884Z,2.41
2018-12-09T04:37:38.825Z,2.03
2018-12-09T04:38:38.831Z,2.32
2018-12-09T04:39:38.855Z,2.32
2018-12-09T04:40:38.500Z,2.22
2018-12-09T04:41:38.843Z,2.03
2018-12-09T04:42:38.801Z,2.32
2018-12-09T04:43:38.474Z,2.32
2018-12-09T04:44:38.808Z,1.93
2018-12-09T04:45:38.449Z,2.22
2018-12-09T04:46:38.449Z,2.32
2018-12-09T04:47:38.422Z,2.32
2018-12-09T04:48:38.415Z,2.41
2018-12-09T04:49:38.438Z,2.03
2018-12-09T04:50:38.748Z,2.32
2018-12-09T04:51:38.409Z,2.32
2018-12-09T04:52:38.719Z,2.32
2018-12-09T04:53:38.704Z,2.32
2018-12-09T04:54:38.738Z,2.32
2018-12-09T04:55:38.695Z,2.32
2018-12-09T04:56:38.397Z,2.32
2018-12-09T04:57:38.733Z,2.32
2018-12-09T04:58:38.373Z,2.32
2018-12-09T04:59:38.369Z,2.32
2018-12-09T05:00:38.327Z,2.32
2018-12-09T05:01:38.699Z,2.32
2018-12-09T05:02:38.666Z,2.32
2018-12-09T05:03:38.307Z,2.32
2018-12-09T05:04:38.656Z,2.32
2018-12-09T05:05:38.647Z,2.32
2018-12-09T05:06:38.273Z,2.22
2018-12-09T05:07:38.623Z,2.32
2018-12-09T05:08:38.290Z,2.22
2018-12-09T05:09:38.641Z,2.32
2018-12-09T05:10:38.604Z,2.32
2018-12-09T05:11:38.639Z,2.22
2018-12-09T05:12:38.285Z,2.32
2018-12-09T05:13:38.275Z,2.32
2018-12-09T05:14:38.293Z,2.41
2018-12-09T05:15:38.610Z,2.32
2018-12-09T05:16:38.240Z,2.32
2018-12-09T05:17:38.229Z,2.32
2018-12-09T05:18:38.224Z,2.32
2018-12-09T05:19:38.577Z,2.03
2018-12-09T05:20:38.571Z,2.32
2018-12-09T05:21:38.522Z,2.32
2018-12-09T05:22:38.181Z,2.22
2018-12-09T05:23:38.213Z,2.03
2018-12-09T05:24:38.186Z,2.32
2018-12-09T05:25:38.155Z,2.32
2018-12-09T05:26:38.177Z,2.32
2018-12-09T05:27:38.506Z,1.93
2018-12-09T05:28:38.154Z,2.32
2018-12-09T05:29:38.153Z,2.22
2018-12-09T05:30:38.483Z,2.03
2018-12-09T05:31:38.145Z,2.03
2018-12-09T05:32:38.500Z,1.93
2018-12-09T05:33:38.087Z,2.03
2018-12-09T05:34:38.079Z,1.93
2018-12-09T05:35:38.104Z,2.03
2018-12-09T05:36:38.398Z,2.03
2018-12-09T05:37:38.398Z,1.93
2018-12-09T05:38:38.095Z,2.03
2018-12-09T05:39:38.392Z,1.93
2018-12-09T05:40:38.403Z,1.93
2018-12-09T05:41:38.033Z,1.93
2018-12-09T05:42:38.377Z,1.93
2018-12-09T05:43:38.062Z,2.03
2018-12-09T05:44:38.008Z,1.93
2018-12-09T05:45:37.998Z,1.93
2018-12-09T05:46:38.388Z,1.93
2018-12-09T05:47:37.990Z,1.93
2018-12-09T05:48:37.969Z,2.03
2018-12-09T05:49:37.961Z,2.03
2018-12-09T05:50:38.349Z,2.03
2018-12-09T05:51:38.337Z,2.03
2018-12-09T05:52:38.315Z,2.03
2018-12-09T05:53:37.948Z,1.93
2018-12-09T05:54:38.329Z,1.74
2018-12-09T05:55:38.312Z,1.74
2018-12-09T05:56:37.944Z,1.93
2018-12-09T05:57:38.283Z,1.64
2018-12-09T05:58:37.934Z,1.64
2018-12-09T05:59:37.936Z,1.74
2018-12-09T06:00:37.896Z,1.74
2018-12-09T06:01:37.925Z,1.74
2018-12-09T06:02:37.870Z,1.64
2018-12-09T06:03:37.910Z,1.35
2018-12-09T06:04:37.907Z,1.35
2018-12-09T06:05:38.227Z,1.45
2018-12-09T06:06:37.875Z,1.64
2018-12-09T06:07:38.216Z,1.64
2018-12-09T06:08:37.874Z,1.74
2018-12-09T06:09:38.687Z,1.64
2018-12-09T06:10:38.203Z,1.35
2018-12-09T06:11:38.165Z,1.35
2018-12-09T06:12:37.816Z,1.35
2018-12-09T06:13:37.837Z,1.35
2018-12-09T06:14:38.124Z,1.35
2018-12-09T06:15:37.780Z,1.54
2018-12-09T06:16:37.801Z,1.45
2018-12-09T06:17:37.803Z,1.54
2018-12-09T06:18:38.112Z,1.16
2018-12-09T06:19:38.113Z,1.16
2018-12-09T06:20:38.137Z,1.06
2018-12-09T06:21:37.741Z,1.06
2018-12-09T06:22:38.090Z,1.06
2018-12-09T06:23:38.059Z,1.06
2018-12-09T06:24:38.084Z,1.06
2018-12-09T06:25:38.061Z,0.96
2018-12-09T06:26:37.692Z,1.06
2018-12-09T06:27:37.733Z,1.35
2018-12-09T06:28:38.050Z,1.35
2018-12-09T06:29:38.024Z,1.06
2018-12-09T06:30:37.721Z,1.16
2018-12-09T06:31:37.691Z,1.16
2018-12-09T06:32:37.666Z,1.16
2018-12-09T06:33:37.645Z,1.16
2018-12-09T06:34:37.998Z,1.16
2018-12-09T06:35:37.672Z,1.54
2018-12-09T06:36:38.001Z,1.54
2018-12-09T06:37:37.642Z,1.54
2018-12-09T06:38:37.646Z,1.45
2018-12-09T06:39:37.952Z,1.54
2018-12-09T06:40:37.937Z,1.45
2018-12-09T06:41:37.957Z,1.54
2018-12-09T06:42:37.633Z,1.45
2018-12-09T06:43:37.958Z,1.35
2018-12-09T06:44:37.571Z,1.45
2018-12-09T06:45:37.595Z,1.45
2018-12-09T06:46:37.587Z,1.45
2018-12-09T06:47:37.592Z,1.35
2018-12-09T06:48:37.577Z,1.54
2018-12-09T06:49:37.917Z,1.35
2018-12-09T06:50:37.535Z,1.35
2018-12-09T06:51:37.857Z,1.35
2018-12-09T06:52:37.852Z,1.35
2018-12-09T06:53:37.876Z,1.35
2018-12-09T06:54:37.496Z,1.16
2018-12-09T06:55:37.863Z,1.35
2018-12-09T06:56:37.876Z,1.35
2018-12-09T06:57:37.480Z,1.25
2018-12-09T06:58:37.511Z,1.25
2018-12-09T06:59:37.808Z,1.64
2018-12-09T07:00:37.499Z,1.74
2018-12-09T07:01:37.449Z,1.25
2018-12-09T07:02:37.812Z,1.64
2018-12-09T07:03:37.474Z,1.74
2018-12-09T07:04:37.433Z,1.54
2018-12-09T07:05:37.790Z,1.54
2018-12-09T07:06:37.776Z,1.54
2018-12-09T07:07:37.805Z,1.64
2018-12-09T07:08:37.791Z,1.45
2018-12-09T07:09:37.740Z,1.64
2018-12-09T07:10:37.783Z,1.45
2018-12-09T07:11:37.764Z,1.45
2018-12-09T07:12:37.821Z,1.45
2018-12-09T07:13:37.410Z,1.54
2018-12-09T07:14:37.371Z,1.45
2018-12-09T07:15:37.349Z,1.54
2018-12-09T07:16:37.349Z,1.64
2018-12-09T07:17:37.357Z,1.54
2018-12-09T07:18:37.332Z,1.54
2018-12-09T07:19:37.663Z,1.45
2018-12-09T07:20:37.678Z,1.45
2018-12-09T07:21:37.309Z,1.64
2018-12-09T07:22:37.300Z,1.64
2018-12-09T07:23:37.343Z,1.35
2018-12-09T07:24:37.323Z,1.45
2018-12-09T07:25:37.636Z,1.64
2018-12-09T07:26:37.602Z,1.45
2018-12-09T07:27:37.642Z,1.45
2018-12-09T07:28:37.303Z,1.54
2018-12-09T07:29:37.259Z,1.54
2018-12-09T07:30:37.625Z,1.35
2018-12-09T07:31:37.242Z,1.54
2018-12-09T07:32:37.573Z,1.54
2018-12-09T07:33:37.564Z,1.45
2018-12-09T07:34:37.206Z,1.45
2018-12-09T07:35:37.591Z,1.35
2018-12-09T07:36:37.239Z,1.35
2018-12-09T07:37:37.565Z,1.35
2018-12-09T07:38:37.217Z,1.45
2018-12-09T07:39:37.182Z,1.35
2018-12-09T07:40:37.165Z,1.45
2018-12-09T07:41:37.197Z,1.64
2018-12-09T07:42:37.160Z,1.54
2018-12-09T07:43:37.524Z,1.45
2018-12-09T07:44:37.138Z,1.64
2018-12-09T07:45:37.143Z,1.83
2018-12-09T07:46:37.499Z,1.83
2018-12-09T07:47:37.114Z,1.83
2018-12-09T07:48:37.473Z,1.54
2018-12-09T07:49:37.467Z,1.74
2018-12-09T07:50:37.495Z,1.74
2018-12-09T07:51:37.439Z,1.74
2018-12-09T07:52:37.471Z,1.74
2018-12-09T07:53:37.073Z,1.74
2018-12-09T07:54:37.404Z,1.74
2018-12-09T07:55:37.440Z,1.74
2018-12-09T07:56:37.415Z,1.64
2018-12-09T07:57:37.414Z,1.74
2018-12-09T07:58:37.394Z,1.64
2018-12-09T07:59:37.404Z,1.74
2018-12-09T08:00:37.358Z,1.64
2018-12-09T08:01:37.382Z,1.74
2018-12-09T08:02:37.044Z,1.64
2018-12-09T08:03:37.400Z,1.74
2018-12-09T08:04:37.022Z,1.64
2018-12-09T08:05:36.991Z,1.74
2018-12-09T08:06:37.369Z,1.74
2018-12-09T08:07:37.006Z,1.74
2018-12-09T08:08:37.315Z,1.74
2018-12-09T08:09:36.987Z,1.83
2018-12-09T08:10:36.958Z,1.83
2018-12-09T08:11:37.327Z,1.83
2018-12-09T08:12:37.287Z,1.74
2018-12-09T08:13:37.327Z,1.74
2018-12-09T08:14:36.936Z,1.64
2018-12-09T08:15:37.304Z,1.64
2018-12-09T08:16:37.262Z,1.64
2018-12-09T08:17:36.924Z,1.74
2018-12-09T08:18:36.901Z,1.64
2018-12-09T08:19:36.893Z,1.64
2018-12-09T08:20:37.233Z,1.74
2018-12-09T08:21:36.883Z,1.64
2018-12-09T08:22:36.870Z,1.74
2018-12-09T08:23:37.248Z,1.64
2018-12-09T08:24:37.235Z,1.64
2018-12-09T08:25:37.180Z,1.64
2018-12-09T08:26:37.204Z,1.74
2018-12-09T08:27:36.835Z,1.74
2018-12-09T08:28:36.817Z,1.74
2018-12-09T08:29:37.152Z,1.74
2018-12-09T08:30:38.056Z,1.74
2018-12-09T08:31:36.816Z,1.64
2018-12-09T08:32:36.827Z,1.64
2018-12-09T08:33:36.826Z,1.64
2018-12-09T08:34:37.444Z,1.64
2018-12-09T08:35:36.813Z,1.93
2018-12-09T08:36:37.133Z,1.54
2018-12-09T08:37:36.796Z,1.64
2018-12-09T08:38:37.084Z,1.83
2018-12-09T08:39:36.757Z,1.54
2018-12-09T08:40:36.744Z,1.93
2018-12-09T08:41:36.742Z,1.93
2018-12-09T08:42:37.070Z,2.03
2018-12-09T08:43:36.721Z,1.83
2018-12-09T08:44:36.737Z,1.83
2018-12-09T08:45:36.744Z,1.83
2018-12-09T08:46:36.696Z,1.83
2018-12-09T08:47:36.688Z,1.93
2018-12-09T08:48:36.693Z,1.93
2018-12-09T08:49:37.005Z,1.83
2018-12-09T08:50:36.675Z,1.83
2018-12-09T08:51:37.025Z,2.03
2018-12-09T08:52:36.996Z,1.93
2018-12-09T08:53:37.000Z,1.74
2018-12-09T08:54:36.681Z,1.74
2018-12-09T08:55:36.642Z,1.64
2018-12-09T08:56:36.633Z,1.64
2018-12-09T08:57:36.611Z,1.74
2018-12-09T08:58:36.942Z,1.74
2018-12-09T08:59:36.615Z,1.74
2018-12-09T09:00:36.976Z,1.74
2018-12-09T09:01:36.626Z,1.74
2018-12-09T09:02:36.914Z,1.74
2018-12-09T09:03:36.933Z,1.83
2018-12-09T09:04:36.909Z,1.83
2018-12-09T09:05:36.947Z,1.74
2018-12-09T09:06:36.885Z,1.83
2018-12-09T09:07:36.541Z,1.64
2018-12-09T09:08:36.921Z,1.64
2018-12-09T09:09:36.877Z,1.64
2018-12-09T09:10:36.898Z,1.93
2018-12-09T09:11:36.527Z,1.83
2018-12-09T09:12:36.501Z,2.03
2018-12-09T09:13:36.502Z,1.93
2018-12-09T09:14:36.874Z,1.64
2018-12-09T09:15:36.493Z,1.93
2018-12-09T09:16:36.469Z,1.93
2018-12-09T09:17:36.829Z,1.83
2018-12-09T09:18:36.827Z,1.83
2018-12-09T09:19:36.790Z,2.03
2018-12-09T09:20:36.827Z,2.12
2018-12-09T09:21:36.438Z,1.83
2018-12-09T09:22:36.828Z,2.03
2018-12-09T09:23:36.458Z,1.83
2018-12-09T09:24:36.789Z,1.83
2018-12-09T09:25:36.452Z,1.83
2018-12-09T09:26:36.418Z,2.03
2018-12-09T09:27:36.751Z,2.03
2018-12-09T09:28:36.381Z,1.83
2018-12-09T09:29:36.738Z,2.12
2018-12-09T09:30:36.382Z,2.03
2018-12-09T09:31:36.410Z,1.64
2018-12-09T09:32:36.367Z,1.64
2018-12-09T09:33:36.742Z,2.03
2018-12-09T09:34:36.716Z,1.64
2018-12-09T09:35:36.350Z,2.03
2018-12-09T09:36:36.685Z,1.93
2018-12-09T09:37:36.335Z,1.74
2018-12-09T09:38:36.311Z,1.93
2018-12-09T09:39:36.670Z,1.93
2018-12-09T09:40:36.339Z,1.93
2018-12-09T09:41:36.318Z,1.64
2018-12-09T09:42:36.327Z,1.93
2018-12-09T09:43:36.620Z,1.93
2018-12-09T09:44:36.620Z,1.83
2018-12-09T09:45:36.264Z,1.83
2018-12-09T09:46:36.612Z,1.93
2018-12-09T09:47:36.302Z,1.83
2018-12-09T09:48:36.239Z,1.83
2018-12-09T09:49:36.230Z,1.74
2018-12-09T09:50:36.265Z,1.74
2018-12-09T09:51:36.567Z,1.83
2018-12-09T09:52:36.582Z,1.74
2018-12-09T09:53:36.219Z,1.64
2018-12-09T09:54:36.553Z,1.74
2018-12-09T09:55:36.230Z,1.74
2018-12-09T09:56:36.547Z,2.22
2018-12-09T09:57:36.529Z,1.93
2018-12-09T09:58:36.218Z,1.64
2018-12-09T09:59:36.167Z,2.03
2018-12-09T10:00:36.276Z,1.74
2018-12-09T10:01:36.153Z,1.74
2018-12-09T10:02:36.152Z,2.03
2018-12-09T10:03:36.497Z,1.74
2018-12-09T10:04:36.128Z,1.73
2018-12-09T10:05:36.118Z,1.74
2018-12-09T10:06:36.111Z,1.74
2018-12-09T10:07:36.444Z,1.93
2018-12-09T10:08:36.485Z,1.83
2018-12-09T10:09:36.121Z,1.74
2018-12-09T10:10:36.415Z,2.03
2018-12-09T10:11:36.082Z,1.74
2018-12-09T10:12:36.069Z,2.03
2018-12-09T10:13:36.458Z,1.83
2018-12-09T10:14:36.404Z,1.93
2018-12-09T10:15:36.041Z,1.83
2018-12-09T10:16:36.422Z,1.64
2018-12-09T10:17:36.366Z,1.83
2018-12-09T10:18:36.079Z,1.93
2018-12-09T10:19:36.367Z,1.93
2018-12-09T10:20:36.361Z,1.64
2018-12-09T10:21:36.005Z,1.93
2018-12-09T10:22:36.005Z,1.64
2018-12-09T10:23:35.986Z,2.03
2018-12-09T10:24:36.338Z,1.93
2018-12-09T10:25:36.006Z,1.93
2018-12-09T10:26:36.524Z,1.93
2018-12-09T10:27:35.993Z,1.93
2018-12-09T10:28:36.659Z,1.93
2018-12-09T10:29:36.289Z,1.93
2018-12-09T10:30:35.940Z,1.93
2018-12-09T10:31:36.264Z,2.03
2018-12-09T10:32:36.258Z,1.64
2018-12-09T10:33:35.927Z,2.03
2018-12-09T10:34:38.841Z,1.83
2018-12-09T10:35:36.250Z,2.03
2018-12-09T10:36:35.910Z,2.12
2018-12-09T10:37:36.271Z,2.03
2018-12-09T10:38:35.886Z,1.83
2018-12-09T10:39:35.894Z,2.12
2018-12-09T10:40:35.858Z,2.12
2018-12-09T10:41:36.219Z,2.12
2018-12-09T10:42:35.894Z,2.03
2018-12-09T10:43:35.846Z,2.12
2018-12-09T10:44:35.857Z,2.03
2018-12-09T10:45:35.875Z,1.74
2018-12-09T10:46:36.186Z,2.03
2018-12-09T10:47:36.167Z,2.03
2018-12-09T10:48:36.150Z,2.12
2018-12-09T10:49:35.836Z,2.03
2018-12-09T10:50:35.832Z,1.93
2018-12-09T10:51:36.128Z,1.93
2018-12-09T10:52:36.134Z,2.03
2018-12-09T10:53:35.764Z,1.93
2018-12-09T10:54:36.129Z,2.03
2018-12-09T10:55:35.788Z,2.03
2018-12-09T10:56:36.081Z,2.03
2018-12-09T10:57:36.085Z,2.03
2018-12-09T10:58:36.118Z,2.41
2018-12-09T10:59:36.063Z,1.93
2018-12-09T11:00:36.103Z,2.03
2018-12-09T11:01:36.059Z,1.93
2018-12-09T11:02:36.071Z,2.03
2018-12-09T11:03:35.692Z,1.93
2018-12-09T11:04:36.029Z,2.22
2018-12-09T11:05:36.039Z,2.03
2018-12-09T11:06:35.710Z,2.03
2018-12-09T11:07:36.028Z,2.03
2018-12-09T11:08:35.689Z,2.03
2018-12-09T11:09:35.665Z,2.22
2018-12-09T11:10:35.676Z,2.03
2018-12-09T11:11:35.648Z,2.32
2018-12-09T11:12:36.008Z,2.31
2018-12-09T11:13:35.998Z,1.93
2018-12-09T11:14:35.650Z,1.93
2018-12-09T11:15:35.972Z,2.22
2018-12-09T11:16:35.970Z,2.32
2018-12-09T11:17:35.961Z,2.03
2018-12-09T11:18:35.631Z,2.31
2018-12-09T11:19:35.605Z,2.32
2018-12-09T11:20:35.581Z,2.31
2018-12-09T11:21:35.903Z,2.32
2018-12-09T11:22:35.910Z,2.31
2018-12-09T11:23:35.556Z,2.31
2018-12-09T11:24:35.883Z,2.31
2018-12-09T11:25:35.572Z,2.32
2018-12-09T11:26:35.904Z,2.31
2018-12-09T11:27:35.552Z,2.32
2018-12-09T11:28:35.531Z,2.32
2018-12-09T11:29:35.512Z,2.31
2018-12-09T11:30:35.890Z,2.22
2018-12-09T11:31:35.517Z,2.03
2018-12-09T11:32:35.532Z,2.32
2018-12-09T11:33:35.851Z,2.41
2018-12-09T11:34:35.473Z,2.22
2018-12-09T11:35:35.852Z,2.41
2018-12-09T11:36:35.508Z,2.41
2018-12-09T11:37:35.814Z,2.32
2018-12-09T11:38:35.814Z,2.22
2018-12-09T11:39:35.469Z,2.31
2018-12-09T11:40:35.447Z,2.31
2018-12-09T11:41:35.449Z,2.32
2018-12-09T11:42:35.766Z,2.22
2018-12-09T11:43:35.782Z,2.31
2018-12-09T11:44:35.410Z,2.31
2018-12-09T11:45:35.745Z,2.31
2018-12-09T11:46:35.395Z,2.32
2018-12-09T11:47:35.747Z,2.31
2018-12-09T11:48:35.400Z,2.32
2018-12-09T11:49:35.743Z,2.22
2018-12-09T11:50:35.686Z,2.32
2018-12-09T11:51:35.352Z,2.31
2018-12-09T11:52:35.372Z,2.31
2018-12-09T11:53:36.638Z,2.31
2018-12-09T11:54:35.352Z,2.31
2018-12-09T11:55:35.366Z,2.31
2018-12-09T11:56:35.343Z,2.31
2018-12-09T11:57:35.323Z,2.12
2018-12-09T11:58:35.649Z,2.41
2018-12-09T11:59:35.671Z,2.12
2018-12-09T12:00:35.320Z,2.41
2018-12-09T12:01:35.623Z,2.12
2018-12-09T12:02:35.651Z,2.22
2018-12-09T12:03:35.647Z,2.12
2018-12-09T12:04:35.586Z,2.32
2018-12-09T12:05:35.255Z,2.32
2018-12-09T12:06:35.271Z,2.12
2018-12-09T12:07:35.258Z,2.12
2018-12-09T12:08:35.245Z,2.31
2018-12-09T12:09:35.598Z,2.12
2018-12-09T12:10:35.556Z,2.12
2018-12-09T12:11:35.218Z,2.12
2018-12-09T12:12:35.238Z,2.31
2018-12-09T12:13:35.527Z,2.03
2018-12-09T12:14:35.552Z,2.22
2018-12-09T12:15:35.217Z,2.22
2018-12-09T12:16:35.503Z,2.31
2018-12-09T12:17:35.628Z,2.12
2018-12-09T12:18:35.538Z,2.41
2018-12-09T12:19:35.489Z,2.03
2018-12-09T12:20:35.484Z,2.12
2018-12-09T12:21:35.494Z,2.22
2018-12-09T12:22:35.477Z,2.12
2018-12-09T12:23:35.501Z,2.22
2018-12-09T12:24:35.139Z,2.12
2018-12-09T12:25:35.462Z,2.12
2018-12-09T12:26:35.096Z,2.03
2018-12-09T12:27:35.424Z,2.12
2018-12-09T12:28:35.432Z,2.22
2018-12-09T12:29:35.076Z,2.12
2018-12-09T12:30:35.398Z,2.12
2018-12-09T12:31:35.096Z,2.12
2018-12-09T12:32:35.437Z,2.12
2018-12-09T12:33:35.073Z,2.22
2018-12-09T12:34:35.412Z,2.12
2018-12-09T12:35:35.389Z,2.22
2018-12-09T12:36:35.038Z,2.22
2018-12-09T12:37:35.402Z,2.22
2018-12-09T12:38:35.350Z,2.12
2018-12-09T12:39:35.033Z,2.22
2018-12-09T12:40:35.333Z,2.22
2018-12-09T12:41:35.004Z,2.22
2018-12-09T12:42:34.975Z,2.12
2018-12-09T12:43:35.333Z,2.12
2018-12-09T12:44:34.956Z,2.31
2018-12-09T12:45:35.343Z,2.32
2018-12-09T12:46:34.950Z,2.03
2018-12-09T12:47:34.938Z,2.03
2018-12-09T12:48:34.944Z,2.31
2018-12-09T12:49:34.929Z,2.22
2018-12-09T12:50:35.298Z,2.22
2018-12-09T12:51:34.916Z,2.32
2018-12-09T12:52:34.939Z,2.32
2018-12-09T12:53:34.899Z,2.32
2018-12-09T12:54:34.883Z,2.32
2018-12-09T12:55:35.261Z,2.31
2018-12-09T12:56:34.905Z,2.31
2018-12-09T12:57:35.227Z,2.12
2018-12-09T12:58:34.966Z,1.93
2018-12-09T12:59:34.850Z,2.31
2018-12-09T13:00:35.211Z,2.31
2018-12-09T13:01:34.843Z,2.32
2018-12-09T13:02:35.216Z,2.12
2018-12-09T13:03:34.857Z,2.12
2018-12-09T13:04:34.862Z,2.12
2018-12-09T13:05:35.152Z,2.32
2018-12-09T13:06:35.182Z,2.12
2018-12-09T13:07:35.190Z,2.32
2018-12-09T13:08:35.129Z,2.12
2018-12-09T13:09:35.154Z,2.31
2018-12-09T13:10:35.123Z,2.12
2018-12-09T13:11:34.801Z,1.93
2018-12-09T13:12:35.120Z,1.93
2018-12-09T13:13:35.083Z,2.12
2018-12-09T13:14:35.135Z,1.93
2018-12-09T13:15:35.132Z,2.32
2018-12-09T13:16:35.078Z,2.12
2018-12-09T13:17:35.103Z,2.12
2018-12-09T13:18:35.092Z,2.12